sensor_id;sensor_type;location;lat;lon;timestamp;temperature;humidity
15906;DHT22;8051;50.820;4.884;2023-07-31T00:01:37;16.40;99.90
15906;DHT22;8051;50.820;4.884;2023-07-31T00:04:05;16.40;99.90
15906;DHT22;8051;50.820;4.884;2023-07-31T00:06:32;16.50;99.90
15906;DHT22;8051;50.820;4.884;2023-07-31T00:09:00;16.50;99.90
15906;DHT22;8051;50.820;4.884;2023-07-31T00:11:29;16.60;99.90
15906;DHT22;8051;50.820;4.884;2023-07-31T00:13:56;16.60;99.90
15906;DHT22;8051;50.820;4.884;2023-07-31T00:16:24;16.60;99.90
15906;DHT22;8051;50.820;4.884;2023-07-31T00:18:51;16.70;99.90
15906;DHT22;8051;50.820;4.884;2023-07-31T00:21:19;16.70;99.90
15906;DHT22;8051;50.820;4.884;2023-07-31T00:23:46;16.80;99.90
15906;DHT22;8051;50.820;4.884;2023-07-31T00:26:14;16.80;99.90
15906;DHT22;8051;50.820;4.884;2023-07-31T00:28:42;16.80;99.90
15906;DHT22;8051;50.820;4.884;2023-07-31T00:31:10;16.90;99.90
15906;DHT22;8051;50.820;4.884;2023-07-31T00:33:44;16.90;99.90
15906;DHT22;8051;50.820;4.884;2023-07-31T00:36:11;16.90;99.90
15906;DHT22;8051;50.820;4.884;2023-07-31T00:38:38;17.00;99.90
15906;DHT22;8051;50.820;4.884;2023-07-31T00:41:06;17.00;99.90
15906;DHT22;8051;50.820;4.884;2023-07-31T00:43:33;17.00;99.90
15906;DHT22;8051;50.820;4.884;2023-07-31T00:46:02;17.00;99.90
15906;DHT22;8051;50.820;4.884;2023-07-31T00:48:30;17.00;99.90
15906;DHT22;8051;50.820;4.884;2023-07-31T00:50:57;17.00;99.90
15906;DHT22;8051;50.820;4.884;2023-07-31T00:53:25;17.00;99.90
15906;DHT22;8051;50.820;4.884;2023-07-31T00:55:52;17.00;99.90
15906;DHT22;8051;50.820;4.884;2023-07-31T00:58:21;16.90;99.90
15906;DHT22;8051;50.820;4.884;2023-07-31T01:00:49;16.90;99.90
15906;DHT22;8051;50.820;4.884;2023-07-31T01:03:19;17.00;99.90
15906;DHT22;8051;50.820;4.884;2023-07-31T01:05:53;17.00;99.90
15906;DHT22;8051;50.820;4.884;2023-07-31T01:08:27;17.00;99.90
15906;DHT22;8051;50.820;4.884;2023-07-31T01:11:00;17.00;99.90
15906;DHT22;8051;50.820;4.884;2023-07-31T01:13:29;17.00;99.90
15906;DHT22;8051;50.820;4.884;2023-07-31T01:15:57;17.00;99.90
15906;DHT22;8051;50.820;4.884;2023-07-31T01:18:25;17.10;99.90
15906;DHT22;8051;50.820;4.884;2023-07-31T01:20:57;17.00;99.90
15906;DHT22;8051;50.820;4.884;2023-07-31T01:23:57;17.00;99.90
15906;DHT22;8051;50.820;4.884;2023-07-31T01:26:32;17.00;99.90
15906;DHT22;8051;50.820;4.884;2023-07-31T01:29:03;17.00;99.90
15906;DHT22;8051;50.820;4.884;2023-07-31T01:31:32;16.90;99.90
15906;DHT22;8051;50.820;4.884;2023-07-31T01:34:01;16.90;99.90
15906;DHT22;8051;50.820;4.884;2023-07-31T01:36:29;16.90;99.90
15906;DHT22;8051;50.820;4.884;2023-07-31T01:38:58;16.90;99.90
15906;DHT22;8051;50.820;4.884;2023-07-31T01:41:28;16.90;99.90
15906;DHT22;8051;50.820;4.884;2023-07-31T01:43:55;16.80;99.90
15906;DHT22;8051;50.820;4.884;2023-07-31T01:46:23;16.80;99.90
15906;DHT22;8051;50.820;4.884;2023-07-31T01:48:51;16.80;99.90
15906;DHT22;8051;50.820;4.884;2023-07-31T01:51:18;16.70;99.90
15906;DHT22;8051;50.820;4.884;2023-07-31T01:53:46;16.70;99.90
15906;DHT22;8051;50.820;4.884;2023-07-31T01:56:13;16.70;99.90
15906;DHT22;8051;50.820;4.884;2023-07-31T01:58:42;16.70;99.90
15906;DHT22;8051;50.820;4.884;2023-07-31T02:01:09;16.70;99.90
15906;DHT22;8051;50.820;4.884;2023-07-31T02:03:37;16.70;99.90
15906;DHT22;8051;50.820;4.884;2023-07-31T02:06:04;16.70;99.90
15906;DHT22;8051;50.820;4.884;2023-07-31T02:08:32;16.80;99.90
15906;DHT22;8051;50.820;4.884;2023-07-31T02:10:59;16.80;99.90
15906;DHT22;8051;50.820;4.884;2023-07-31T02:13:26;16.80;99.90
15906;DHT22;8051;50.820;4.884;2023-07-31T02:15:55;16.80;99.90
15906;DHT22;8051;50.820;4.884;2023-07-31T02:18:23;16.90;99.90
15906;DHT22;8051;50.820;4.884;2023-07-31T02:20:51;16.90;99.90
15906;DHT22;8051;50.820;4.884;2023-07-31T02:23:19;16.90;99.90
15906;DHT22;8051;50.820;4.884;2023-07-31T02:25:46;16.90;99.90
15906;DHT22;8051;50.820;4.884;2023-07-31T02:28:14;16.90;99.90
15906;DHT22;8051;50.820;4.884;2023-07-31T02:30:44;16.90;99.90
15906;DHT22;8051;50.820;4.884;2023-07-31T02:33:14;16.90;99.90
15906;DHT22;8051;50.820;4.884;2023-07-31T02:35:43;16.90;99.90
15906;DHT22;8051;50.820;4.884;2023-07-31T02:38:11;16.90;99.90
15906;DHT22;8051;50.820;4.884;2023-07-31T02:40:39;16.90;99.90
15906;DHT22;8051;50.820;4.884;2023-07-31T02:43:07;16.90;99.90
15906;DHT22;8051;50.820;4.884;2023-07-31T02:45:35;16.90;99.90
15906;DHT22;8051;50.820;4.884;2023-07-31T02:48:02;16.90;99.90
15906;DHT22;8051;50.820;4.884;2023-07-31T02:50:32;16.90;99.90
15906;DHT22;8051;50.820;4.884;2023-07-31T02:53:00;17.00;99.90
15906;DHT22;8051;50.820;4.884;2023-07-31T02:55:27;17.00;99.90
15906;DHT22;8051;50.820;4.884;2023-07-31T02:57:55;16.90;99.90
15906;DHT22;8051;50.820;4.884;2023-07-31T03:00:24;17.00;99.90
15906;DHT22;8051;50.820;4.884;2023-07-31T03:02:54;16.90;99.90
15906;DHT22;8051;50.820;4.884;2023-07-31T03:05:21;17.00;99.90
15906;DHT22;8051;50.820;4.884;2023-07-31T03:07:50;16.90;99.90
15906;DHT22;8051;50.820;4.884;2023-07-31T03:10:18;17.00;99.90
15906;DHT22;8051;50.820;4.884;2023-07-31T03:12:47;16.90;99.90
15906;DHT22;8051;50.820;4.884;2023-07-31T03:15:14;16.90;99.90
15906;DHT22;8051;50.820;4.884;2023-07-31T03:17:43;16.90;99.90
15906;DHT22;8051;50.820;4.884;2023-07-31T03:20:11;17.00;99.90
15906;DHT22;8051;50.820;4.884;2023-07-31T03:22:39;17.00;99.90
15906;DHT22;8051;50.820;4.884;2023-07-31T03:25:09;17.00;99.90
15906;DHT22;8051;50.820;4.884;2023-07-31T03:27:37;17.00;99.90
15906;DHT22;8051;50.820;4.884;2023-07-31T03:30:05;17.00;99.90
15906;DHT22;8051;50.820;4.884;2023-07-31T03:32:33;17.00;99.90
15906;DHT22;8051;50.820;4.884;2023-07-31T03:35:00;17.00;99.90
15906;DHT22;8051;50.820;4.884;2023-07-31T03:37:29;17.00;99.90
15906;DHT22;8051;50.820;4.884;2023-07-31T03:39:57;17.00;99.90
15906;DHT22;8051;50.820;4.884;2023-07-31T03:42:26;17.00;99.90
15906;DHT22;8051;50.820;4.884;2023-07-31T03:44:53;17.00;99.90
15906;DHT22;8051;50.820;4.884;2023-07-31T03:47:20;17.00;99.90
15906;DHT22;8051;50.820;4.884;2023-07-31T03:49:48;17.00;99.90
15906;DHT22;8051;50.820;4.884;2023-07-31T03:52:15;17.00;99.90
15906;DHT22;8051;50.820;4.884;2023-07-31T03:54:43;17.00;99.90
15906;DHT22;8051;50.820;4.884;2023-07-31T03:57:10;17.00;99.90
15906;DHT22;8051;50.820;4.884;2023-07-31T03:59:39;17.00;99.90
15906;DHT22;8051;50.820;4.884;2023-07-31T04:02:07;17.00;99.90
15906;DHT22;8051;50.820;4.884;2023-07-31T04:04:35;17.00;99.90
15906;DHT22;8051;50.820;4.884;2023-07-31T04:07:02;17.00;99.90
15906;DHT22;8051;50.820;4.884;2023-07-31T04:09:30;17.00;99.90
15906;DHT22;8051;50.820;4.884;2023-07-31T04:11:57;16.90;99.90
15906;DHT22;8051;50.820;4.884;2023-07-31T04:14:25;16.90;99.90
15906;DHT22;8051;50.820;4.884;2023-07-31T04:16:54;16.90;99.90
15906;DHT22;8051;50.820;4.884;2023-07-31T04:19:21;16.80;99.90
15906;DHT22;8051;50.820;4.884;2023-07-31T04:21:48;16.70;99.90
15906;DHT22;8051;50.820;4.884;2023-07-31T04:24:16;16.70;99.90
15906;DHT22;8051;50.820;4.884;2023-07-31T04:26:50;16.60;99.90
15906;DHT22;8051;50.820;4.884;2023-07-31T04:29:17;16.50;99.90
15906;DHT22;8051;50.820;4.884;2023-07-31T04:31:45;16.50;99.90
15906;DHT22;8051;50.820;4.884;2023-07-31T04:34:13;16.40;99.90
15906;DHT22;8051;50.820;4.884;2023-07-31T04:36:40;16.30;99.90
15906;DHT22;8051;50.820;4.884;2023-07-31T04:39:08;16.30;99.90
15906;DHT22;8051;50.820;4.884;2023-07-31T04:41:35;16.30;99.90
15906;DHT22;8051;50.820;4.884;2023-07-31T04:44:03;16.30;99.90
15906;DHT22;8051;50.820;4.884;2023-07-31T04:46:31;16.30;99.90
15906;DHT22;8051;50.820;4.884;2023-07-31T04:48:58;16.30;99.90
15906;DHT22;8051;50.820;4.884;2023-07-31T04:51:27;16.30;99.90
15906;DHT22;8051;50.820;4.884;2023-07-31T04:53:55;16.30;99.90
15906;DHT22;8051;50.820;4.884;2023-07-31T04:56:23;16.30;99.90
15906;DHT22;8051;50.820;4.884;2023-07-31T04:58:50;16.40;99.90
15906;DHT22;8051;50.820;4.884;2023-07-31T05:01:17;16.40;99.90
15906;DHT22;8051;50.820;4.884;2023-07-31T05:03:45;16.50;99.90
15906;DHT22;8051;50.820;4.884;2023-07-31T05:06:12;16.50;99.90
15906;DHT22;8051;50.820;4.884;2023-07-31T05:08:42;16.50;99.90
15906;DHT22;8051;50.820;4.884;2023-07-31T05:11:10;16.50;99.90
15906;DHT22;8051;50.820;4.884;2023-07-31T05:13:37;16.50;99.90
15906;DHT22;8051;50.820;4.884;2023-07-31T05:16:05;16.60;99.90
15906;DHT22;8051;50.820;4.884;2023-07-31T05:18:32;16.60;99.90
15906;DHT22;8051;50.820;4.884;2023-07-31T05:21:00;16.70;99.90
15906;DHT22;8051;50.820;4.884;2023-07-31T05:23:28;16.60;99.90
15906;DHT22;8051;50.820;4.884;2023-07-31T05:26:04;16.60;99.90
15906;DHT22;8051;50.820;4.884;2023-07-31T05:28:31;16.60;99.90
15906;DHT22;8051;50.820;4.884;2023-07-31T05:30:59;16.70;99.90
15906;DHT22;8051;50.820;4.884;2023-07-31T05:33:27;16.60;99.90
15906;DHT22;8051;50.820;4.884;2023-07-31T05:35:54;16.60;99.90
15906;DHT22;8051;50.820;4.884;2023-07-31T05:38:22;16.60;99.90
15906;DHT22;8051;50.820;4.884;2023-07-31T05:40:49;16.50;99.90
15906;DHT22;8051;50.820;4.884;2023-07-31T05:43:18;16.30;99.90
15906;DHT22;8051;50.820;4.884;2023-07-31T05:45:46;16.30;99.90
15906;DHT22;8051;50.820;4.884;2023-07-31T05:48:13;16.20;99.90
15906;DHT22;8051;50.820;4.884;2023-07-31T05:50:40;16.10;99.90
15906;DHT22;8051;50.820;4.884;2023-07-31T05:53:08;16.10;99.90
15906;DHT22;8051;50.820;4.884;2023-07-31T05:55:36;16.10;99.90
15906;DHT22;8051;50.820;4.884;2023-07-31T05:58:04;16.00;99.90
15906;DHT22;8051;50.820;4.884;2023-07-31T06:00:33;16.00;99.90
15906;DHT22;8051;50.820;4.884;2023-07-31T06:03:00;16.00;99.90
15906;DHT22;8051;50.820;4.884;2023-07-31T06:05:28;16.00;99.90
15906;DHT22;8051;50.820;4.884;2023-07-31T06:07:56;15.90;99.90
15906;DHT22;8051;50.820;4.884;2023-07-31T06:10:23;15.90;99.90
15906;DHT22;8051;50.820;4.884;2023-07-31T06:12:51;15.90;99.90
15906;DHT22;8051;50.820;4.884;2023-07-31T06:15:20;15.80;99.90
15906;DHT22;8051;50.820;4.884;2023-07-31T06:17:48;15.80;99.90
15906;DHT22;8051;50.820;4.884;2023-07-31T06:20:16;15.90;99.90
15906;DHT22;8051;50.820;4.884;2023-07-31T06:22:43;15.90;99.90
15906;DHT22;8051;50.820;4.884;2023-07-31T06:25:12;16.00;99.90
15906;DHT22;8051;50.820;4.884;2023-07-31T06:27:39;16.00;99.90
15906;DHT22;8051;50.820;4.884;2023-07-31T06:30:07;16.00;99.90
15906;DHT22;8051;50.820;4.884;2023-07-31T06:32:35;16.00;99.90
15906;DHT22;8051;50.820;4.884;2023-07-31T06:35:05;16.00;99.90
15906;DHT22;8051;50.820;4.884;2023-07-31T06:37:32;16.00;99.90
15906;DHT22;8051;50.820;4.884;2023-07-31T06:39:59;16.10;99.90
15906;DHT22;8051;50.820;4.884;2023-07-31T06:42:27;16.10;99.90
15906;DHT22;8051;50.820;4.884;2023-07-31T06:44:55;16.20;99.90
15906;DHT22;8051;50.820;4.884;2023-07-31T06:47:22;16.30;99.90
15906;DHT22;8051;50.820;4.884;2023-07-31T06:49:49;16.30;99.90
15906;DHT22;8051;50.820;4.884;2023-07-31T06:52:18;16.40;99.90
15906;DHT22;8051;50.820;4.884;2023-07-31T06:55:01;16.40;99.90
15906;DHT22;8051;50.820;4.884;2023-07-31T06:57:29;16.60;99.90
15906;DHT22;8051;50.820;4.884;2023-07-31T06:59:56;16.60;99.90
15906;DHT22;8051;50.820;4.884;2023-07-31T07:02:24;16.70;99.90
15906;DHT22;8051;50.820;4.884;2023-07-31T07:04:51;16.80;99.90
15906;DHT22;8051;50.820;4.884;2023-07-31T07:07:20;16.90;99.90
15906;DHT22;8051;50.820;4.884;2023-07-31T07:09:47;16.80;99.90
15906;DHT22;8051;50.820;4.884;2023-07-31T07:12:14;16.80;99.90
15906;DHT22;8051;50.820;4.884;2023-07-31T07:14:42;16.80;99.90
15906;DHT22;8051;50.820;4.884;2023-07-31T07:17:12;16.90;99.90
15906;DHT22;8051;50.820;4.884;2023-07-31T07:19:41;16.90;99.90
15906;DHT22;8051;50.820;4.884;2023-07-31T07:22:08;17.00;99.90
15906;DHT22;8051;50.820;4.884;2023-07-31T07:24:37;17.10;99.90
15906;DHT22;8051;50.820;4.884;2023-07-31T07:27:05;17.10;99.90
15906;DHT22;8051;50.820;4.884;2023-07-31T07:29:34;17.10;99.90
15906;DHT22;8051;50.820;4.884;2023-07-31T07:32:01;17.20;99.90
15906;DHT22;8051;50.820;4.884;2023-07-31T07:34:29;17.20;99.90
15906;DHT22;8051;50.820;4.884;2023-07-31T07:36:56;17.20;99.90
15906;DHT22;8051;50.820;4.884;2023-07-31T07:39:24;17.20;99.90
15906;DHT22;8051;50.820;4.884;2023-07-31T07:41:53;17.20;99.90
15906;DHT22;8051;50.820;4.884;2023-07-31T07:44:20;17.20;99.90
15906;DHT22;8051;50.820;4.884;2023-07-31T07:46:48;17.30;99.90
15906;DHT22;8051;50.820;4.884;2023-07-31T07:49:15;17.20;99.90
15906;DHT22;8051;50.820;4.884;2023-07-31T07:51:43;17.20;99.90
15906;DHT22;8051;50.820;4.884;2023-07-31T07:54:10;17.30;99.90
15906;DHT22;8051;50.820;4.884;2023-07-31T07:56:38;17.40;99.90
15906;DHT22;8051;50.820;4.884;2023-07-31T07:59:06;17.40;99.90
15906;DHT22;8051;50.820;4.884;2023-07-31T08:01:34;17.60;99.90
15906;DHT22;8051;50.820;4.884;2023-07-31T08:04:02;17.60;99.90
15906;DHT22;8051;50.820;4.884;2023-07-31T08:06:29;17.60;99.90
15906;DHT22;8051;50.820;4.884;2023-07-31T08:08:56;17.70;99.90
15906;DHT22;8051;50.820;4.884;2023-07-31T08:11:24;17.70;99.90
15906;DHT22;8051;50.820;4.884;2023-07-31T08:13:51;17.80;99.90
15906;DHT22;8051;50.820;4.884;2023-07-31T08:16:20;17.80;99.90
15906;DHT22;8051;50.820;4.884;2023-07-31T08:18:48;17.80;99.90
15906;DHT22;8051;50.820;4.884;2023-07-31T08:21:15;17.80;99.90
15906;DHT22;8051;50.820;4.884;2023-07-31T08:23:43;17.70;99.90
15906;DHT22;8051;50.820;4.884;2023-07-31T08:26:15;17.70;99.90
15906;DHT22;8051;50.820;4.884;2023-07-31T08:28:42;17.70;99.90
15906;DHT22;8051;50.820;4.884;2023-07-31T08:31:10;17.70;99.90
15906;DHT22;8051;50.820;4.884;2023-07-31T08:33:39;17.60;99.90
15906;DHT22;8051;50.820;4.884;2023-07-31T08:36:07;17.50;99.90
15906;DHT22;8051;50.820;4.884;2023-07-31T08:38:34;17.50;99.90
15906;DHT22;8051;50.820;4.884;2023-07-31T08:41:03;17.80;99.90
15906;DHT22;8051;50.820;4.884;2023-07-31T08:43:31;17.80;99.90
15906;DHT22;8051;50.820;4.884;2023-07-31T08:46:00;17.70;99.90
15906;DHT22;8051;50.820;4.884;2023-07-31T08:48:28;17.60;99.90
15906;DHT22;8051;50.820;4.884;2023-07-31T08:50:58;17.50;99.90
15906;DHT22;8051;50.820;4.884;2023-07-31T08:53:25;17.60;99.90
15906;DHT22;8051;50.820;4.884;2023-07-31T08:55:53;17.60;99.90
15906;DHT22;8051;50.820;4.884;2023-07-31T08:58:21;17.60;99.90
15906;DHT22;8051;50.820;4.884;2023-07-31T09:00:51;17.40;99.90
15906;DHT22;8051;50.820;4.884;2023-07-31T09:03:19;17.30;99.90
15906;DHT22;8051;50.820;4.884;2023-07-31T09:05:50;17.30;99.90
15906;DHT22;8051;50.820;4.884;2023-07-31T09:08:21;17.40;99.90
15906;DHT22;8051;50.820;4.884;2023-07-31T09:10:49;17.60;99.90
15906;DHT22;8051;50.820;4.884;2023-07-31T09:13:17;17.60;99.90
15906;DHT22;8051;50.820;4.884;2023-07-31T09:15:45;17.70;99.90
15906;DHT22;8051;50.820;4.884;2023-07-31T09:18:13;17.80;99.90
15906;DHT22;8051;50.820;4.884;2023-07-31T09:20:44;18.00;99.90
15906;DHT22;8051;50.820;4.884;2023-07-31T09:23:13;18.10;99.90
15906;DHT22;8051;50.820;4.884;2023-07-31T09:25:45;18.20;99.90
15906;DHT22;8051;50.820;4.884;2023-07-31T09:28:12;18.10;99.90
15906;DHT22;8051;50.820;4.884;2023-07-31T09:30:48;18.20;99.90
15906;DHT22;8051;50.820;4.884;2023-07-31T09:33:16;18.60;99.90
15906;DHT22;8051;50.820;4.884;2023-07-31T09:35:43;18.70;99.90
15906;DHT22;8051;50.820;4.884;2023-07-31T09:38:12;18.60;99.90
15906;DHT22;8051;50.820;4.884;2023-07-31T09:40:41;18.40;99.90
15906;DHT22;8051;50.820;4.884;2023-07-31T09:43:11;18.50;99.90
15906;DHT22;8051;50.820;4.884;2023-07-31T09:45:40;18.60;99.90
15906;DHT22;8051;50.820;4.884;2023-07-31T09:48:08;18.70;99.90
15906;DHT22;8051;50.820;4.884;2023-07-31T09:50:37;18.80;99.90
15906;DHT22;8051;50.820;4.884;2023-07-31T09:53:05;19.10;99.90
15906;DHT22;8051;50.820;4.884;2023-07-31T09:55:33;19.20;99.90
15906;DHT22;8051;50.820;4.884;2023-07-31T09:58:04;19.30;99.90
15906;DHT22;8051;50.820;4.884;2023-07-31T10:00:33;19.40;99.90
15906;DHT22;8051;50.820;4.884;2023-07-31T10:03:02;19.20;99.90
15906;DHT22;8051;50.820;4.884;2023-07-31T10:05:33;19.00;99.90
15906;DHT22;8051;50.820;4.884;2023-07-31T10:08:01;18.70;99.90
15906;DHT22;8051;50.820;4.884;2023-07-31T10:10:29;18.50;99.90
15906;DHT22;8051;50.820;4.884;2023-07-31T10:12:56;18.20;99.90
15906;DHT22;8051;50.820;4.884;2023-07-31T10:15:25;18.00;99.90
15906;DHT22;8051;50.820;4.884;2023-07-31T10:17:55;17.90;99.90
15906;DHT22;8051;50.820;4.884;2023-07-31T10:20:24;18.00;99.90
15906;DHT22;8051;50.820;4.884;2023-07-31T10:22:52;18.10;99.90
15906;DHT22;8051;50.820;4.884;2023-07-31T10:25:22;18.20;99.90
15906;DHT22;8051;50.820;4.884;2023-07-31T10:27:51;18.30;99.90
15906;DHT22;8051;50.820;4.884;2023-07-31T10:30:21;18.50;99.90
15906;DHT22;8051;50.820;4.884;2023-07-31T10:32:51;18.70;99.90
15906;DHT22;8051;50.820;4.884;2023-07-31T10:35:21;18.70;99.90
15906;DHT22;8051;50.820;4.884;2023-07-31T10:37:49;18.90;99.90
15906;DHT22;8051;50.820;4.884;2023-07-31T10:40:18;19.20;99.90
15906;DHT22;8051;50.820;4.884;2023-07-31T10:42:47;19.60;99.90
15906;DHT22;8051;50.820;4.884;2023-07-31T10:45:24;19.80;99.90
15906;DHT22;8051;50.820;4.884;2023-07-31T10:47:59;20.00;99.90
15906;DHT22;8051;50.820;4.884;2023-07-31T10:50:30;20.20;99.90
15906;DHT22;8051;50.820;4.884;2023-07-31T10:52:59;20.20;99.90
15906;DHT22;8051;50.820;4.884;2023-07-31T10:55:32;20.30;99.90
15906;DHT22;8051;50.820;4.884;2023-07-31T10:58:06;20.30;99.90
15906;DHT22;8051;50.820;4.884;2023-07-31T11:00:36;20.40;99.90
15906;DHT22;8051;50.820;4.884;2023-07-31T11:03:05;20.40;99.90
15906;DHT22;8051;50.820;4.884;2023-07-31T11:05:48;20.40;99.90
15906;DHT22;8051;50.820;4.884;2023-07-31T11:08:17;20.20;99.90
15906;DHT22;8051;50.820;4.884;2023-07-31T11:10:45;19.90;99.90
15906;DHT22;8051;50.820;4.884;2023-07-31T11:13:13;19.80;99.90
15906;DHT22;8051;50.820;4.884;2023-07-31T11:15:41;19.70;99.90
15906;DHT22;8051;50.820;4.884;2023-07-31T11:18:08;19.80;99.90
15906;DHT22;8051;50.820;4.884;2023-07-31T11:20:38;20.00;99.90
15906;DHT22;8051;50.820;4.884;2023-07-31T11:23:09;20.10;99.90
15906;DHT22;8051;50.820;4.884;2023-07-31T11:25:39;20.40;99.90
15906;DHT22;8051;50.820;4.884;2023-07-31T11:28:10;20.50;99.90
15906;DHT22;8051;50.820;4.884;2023-07-31T11:30:38;20.50;99.90
15906;DHT22;8051;50.820;4.884;2023-07-31T11:33:07;20.50;99.90
15906;DHT22;8051;50.820;4.884;2023-07-31T11:35:40;20.60;99.90
15906;DHT22;8051;50.820;4.884;2023-07-31T11:38:11;20.70;99.90
15906;DHT22;8051;50.820;4.884;2023-07-31T11:40:41;20.70;99.90
15906;DHT22;8051;50.820;4.884;2023-07-31T11:43:09;20.90;99.90
15906;DHT22;8051;50.820;4.884;2023-07-31T11:45:42;21.00;99.90
15906;DHT22;8051;50.820;4.884;2023-07-31T11:48:19;20.90;99.90
15906;DHT22;8051;50.820;4.884;2023-07-31T11:50:47;20.70;99.90
15906;DHT22;8051;50.820;4.884;2023-07-31T11:53:22;20.50;99.90
15906;DHT22;8051;50.820;4.884;2023-07-31T11:55:50;20.40;99.90
15906;DHT22;8051;50.820;4.884;2023-07-31T11:58:19;20.60;99.90
15906;DHT22;8051;50.820;4.884;2023-07-31T12:00:47;20.80;99.90
15906;DHT22;8051;50.820;4.884;2023-07-31T12:03:15;20.80;99.90
15906;DHT22;8051;50.820;4.884;2023-07-31T12:05:43;20.70;99.90
15906;DHT22;8051;50.820;4.884;2023-07-31T12:08:11;20.50;99.90
15906;DHT22;8051;50.820;4.884;2023-07-31T12:10:40;20.60;99.90
15906;DHT22;8051;50.820;4.884;2023-07-31T12:13:09;21.00;99.90
15906;DHT22;8051;50.820;4.884;2023-07-31T12:15:40;21.10;99.90
15906;DHT22;8051;50.820;4.884;2023-07-31T12:18:09;21.30;99.90
15906;DHT22;8051;50.820;4.884;2023-07-31T12:20:41;21.50;99.90
15906;DHT22;8051;50.820;4.884;2023-07-31T12:23:17;21.60;99.90
15906;DHT22;8051;50.820;4.884;2023-07-31T12:25:46;21.90;99.90
15906;DHT22;8051;50.820;4.884;2023-07-31T12:28:14;22.10;99.90
15906;DHT22;8051;50.820;4.884;2023-07-31T12:30:41;22.50;99.90
15906;DHT22;8051;50.820;4.884;2023-07-31T12:33:14;22.60;99.90
15906;DHT22;8051;50.820;4.884;2023-07-31T12:35:43;22.50;99.90
15906;DHT22;8051;50.820;4.884;2023-07-31T12:38:11;22.30;99.90
15906;DHT22;8051;50.820;4.884;2023-07-31T12:40:40;22.10;99.90
15906;DHT22;8051;50.820;4.884;2023-07-31T12:43:09;21.70;99.90
15906;DHT22;8051;50.820;4.884;2023-07-31T12:45:37;21.50;99.90
15906;DHT22;8051;50.820;4.884;2023-07-31T12:48:04;21.50;99.90
15906;DHT22;8051;50.820;4.884;2023-07-31T12:50:32;21.50;99.90
15906;DHT22;8051;50.820;4.884;2023-07-31T12:53:02;21.40;99.90
15906;DHT22;8051;50.820;4.884;2023-07-31T12:55:30;21.40;99.90
15906;DHT22;8051;50.820;4.884;2023-07-31T12:58:00;21.40;99.90
15906;DHT22;8051;50.820;4.884;2023-07-31T13:00:29;21.10;99.90
15906;DHT22;8051;50.820;4.884;2023-07-31T13:02:56;20.80;99.90
15906;DHT22;8051;50.820;4.884;2023-07-31T13:05:24;20.70;99.90
15906;DHT22;8051;50.820;4.884;2023-07-31T13:07:51;20.60;99.90
15906;DHT22;8051;50.820;4.884;2023-07-31T13:10:19;20.60;99.90
15906;DHT22;8051;50.820;4.884;2023-07-31T13:12:47;20.80;99.90
15906;DHT22;8051;50.820;4.884;2023-07-31T13:15:14;21.30;99.90
15906;DHT22;8051;50.820;4.884;2023-07-31T13:17:43;21.50;99.90
15906;DHT22;8051;50.820;4.884;2023-07-31T13:20:11;21.40;99.90
15906;DHT22;8051;50.820;4.884;2023-07-31T13:22:39;21.30;99.90
15906;DHT22;8051;50.820;4.884;2023-07-31T13:25:07;21.40;99.90
15906;DHT22;8051;50.820;4.884;2023-07-31T13:27:35;21.40;99.90
15906;DHT22;8051;50.820;4.884;2023-07-31T13:30:03;21.30;99.90
15906;DHT22;8051;50.820;4.884;2023-07-31T13:32:30;21.30;99.90
15906;DHT22;8051;50.820;4.884;2023-07-31T13:34:59;21.00;99.90
15906;DHT22;8051;50.820;4.884;2023-07-31T13:37:26;20.70;99.90
15906;DHT22;8051;50.820;4.884;2023-07-31T13:39:54;20.50;99.90
15906;DHT22;8051;50.820;4.884;2023-07-31T13:42:21;20.40;99.90
15906;DHT22;8051;50.820;4.884;2023-07-31T13:44:49;20.40;99.90
15906;DHT22;8051;50.820;4.884;2023-07-31T13:47:16;20.30;99.90
15906;DHT22;8051;50.820;4.884;2023-07-31T13:49:44;20.10;99.90
15906;DHT22;8051;50.820;4.884;2023-07-31T13:52:12;19.80;99.90
15906;DHT22;8051;50.820;4.884;2023-07-31T13:54:40;19.70;99.90
15906;DHT22;8051;50.820;4.884;2023-07-31T13:57:08;19.30;99.90
15906;DHT22;8051;50.820;4.884;2023-07-31T13:59:36;19.00;99.90
15906;DHT22;8051;50.820;4.884;2023-07-31T14:02:04;18.90;99.90
15906;DHT22;8051;50.820;4.884;2023-07-31T14:04:31;18.70;99.90
15906;DHT22;8051;50.820;4.884;2023-07-31T14:06:59;18.70;99.90
15906;DHT22;8051;50.820;4.884;2023-07-31T14:09:27;18.60;99.90
15906;DHT22;8051;50.820;4.884;2023-07-31T14:11:55;18.60;99.90
15906;DHT22;8051;50.820;4.884;2023-07-31T14:14:22;18.50;99.90
15906;DHT22;8051;50.820;4.884;2023-07-31T14:16:50;18.50;99.90
15906;DHT22;8051;50.820;4.884;2023-07-31T14:19:17;18.40;99.90
15906;DHT22;8051;50.820;4.884;2023-07-31T14:21:45;18.50;99.90
15906;DHT22;8051;50.820;4.884;2023-07-31T14:24:12;18.40;99.90
15906;DHT22;8051;50.820;4.884;2023-07-31T14:26:41;18.30;99.90
15906;DHT22;8051;50.820;4.884;2023-07-31T14:29:08;18.30;99.90
15906;DHT22;8051;50.820;4.884;2023-07-31T14:31:36;18.30;99.90
15906;DHT22;8051;50.820;4.884;2023-07-31T14:34:04;18.20;99.90
15906;DHT22;8051;50.820;4.884;2023-07-31T14:36:31;18.10;99.90
15906;DHT22;8051;50.820;4.884;2023-07-31T14:38:58;18.00;99.90
15906;DHT22;8051;50.820;4.884;2023-07-31T14:41:25;17.90;99.90
15906;DHT22;8051;50.820;4.884;2023-07-31T14:43:54;17.80;99.90
15906;DHT22;8051;50.820;4.884;2023-07-31T14:46:22;17.80;99.90
15906;DHT22;8051;50.820;4.884;2023-07-31T14:48:49;17.90;99.90
15906;DHT22;8051;50.820;4.884;2023-07-31T14:51:17;18.00;99.90
15906;DHT22;8051;50.820;4.884;2023-07-31T14:53:44;18.10;99.90
15906;DHT22;8051;50.820;4.884;2023-07-31T14:56:13;18.30;99.90
15906;DHT22;8051;50.820;4.884;2023-07-31T14:58:40;18.30;99.90
15906;DHT22;8051;50.820;4.884;2023-07-31T15:01:09;18.30;99.90
15906;DHT22;8051;50.820;4.884;2023-07-31T15:03:36;18.40;99.90
15906;DHT22;8051;50.820;4.884;2023-07-31T15:06:04;18.50;99.90
15906;DHT22;8051;50.820;4.884;2023-07-31T15:08:33;18.50;99.90
15906;DHT22;8051;50.820;4.884;2023-07-31T15:11:02;18.50;99.90
15906;DHT22;8051;50.820;4.884;2023-07-31T15:13:30;18.50;99.90
15906;DHT22;8051;50.820;4.884;2023-07-31T15:15:57;18.50;99.90
15906;DHT22;8051;50.820;4.884;2023-07-31T15:18:26;18.60;99.90
15906;DHT22;8051;50.820;4.884;2023-07-31T15:20:54;18.40;99.90
15906;DHT22;8051;50.820;4.884;2023-07-31T15:23:21;18.20;99.90
15906;DHT22;8051;50.820;4.884;2023-07-31T15:25:49;18.20;99.90
15906;DHT22;8051;50.820;4.884;2023-07-31T15:28:18;18.20;99.90
15906;DHT22;8051;50.820;4.884;2023-07-31T15:30:45;18.10;99.90
15906;DHT22;8051;50.820;4.884;2023-07-31T15:33:13;18.00;99.90
15906;DHT22;8051;50.820;4.884;2023-07-31T15:35:42;18.00;99.90
15906;DHT22;8051;50.820;4.884;2023-07-31T15:38:09;17.90;99.90
15906;DHT22;8051;50.820;4.884;2023-07-31T15:40:39;17.90;99.90
15906;DHT22;8051;50.820;4.884;2023-07-31T15:43:06;17.90;99.90
15906;DHT22;8051;50.820;4.884;2023-07-31T15:45:33;17.90;99.90
15906;DHT22;8051;50.820;4.884;2023-07-31T15:48:01;17.80;99.90
15906;DHT22;8051;50.820;4.884;2023-07-31T15:50:28;17.80;99.90
15906;DHT22;8051;50.820;4.884;2023-07-31T15:52:57;17.80;99.90